Stations météo

réclame
Mon MeteoGroup
Cartagena, Espagne (8434): Température de l'air & dewpoint: 17.05.2018 22:00:00 - 23.05.2018 22:00:00 (CEST)Cartagena, Espagne (8434): Vitesse du vent & gusts: 17.05.2018 22:00:00 - 23.05.2018 22:00:00 (CEST)Cartagena, Espagne (8434): Direction du vent: 17.05.2018 22:00:00 - 23.05.2018 22:00:00 (CEST)Cartagena, Espagne (8434): Quantités de précipitations: 17.05.2018 22:00:00 - 23.05.2018 22:00:00 (CEST)
Date & Time tt [°C] td [°C] ff [km/h] ff [knt] fx [km/h] fx [knt] dd rr [mm]
23.05.2018 22:00:00 20,7 14,1 10 5 20 11 N 0,0
23.05.2018 21:00:00 21,4 13,8 8 4 22 12 NNE 0,0
23.05.2018 20:00:00 22,6 12,5 8 4 22 12 NNE -
23.05.2018 19:00:00 24,0 10,3 9 5 20 11 NE 0,0
23.05.2018 18:00:00 24,9 9,2 10 5 23 12 E 0,0
23.05.2018 17:00:00 25,2 9,1 10 5 24 13 NE 0,0
23.05.2018 16:00:00 25,5 9,3 11 6 23 13 NE 0,0
23.05.2018 15:00:00 25,0 9,7 13 7 26 14 NE 0,0
23.05.2018 14:00:00 25,5 9,8 11 6 23 13 NE -
23.05.2018 13:00:00 24,8 11,4 9 5 22 12 ENE 0,0
23.05.2018 12:00:00 23,7 11,1 9 5 22 12 ENE 0,0
23.05.2018 11:00:00 22,6 13,7 9 5 16 9 NNE 0,0
23.05.2018 10:00:00 20,4 14,5 4 2 10 6 NW 0,0
23.05.2018 09:00:00 17,9 12,4 5 3 12 7 N 0,0
23.05.2018 08:00:00 16,7 11,0 6 3 12 6 N -
23.05.2018 07:00:00 15,5 10,9 1 1 6 3 NW 0,0
23.05.2018 06:00:00 15,9 11,3 3 2 6 4 NNE 0,0
23.05.2018 05:00:00 16,1 12,8 3 1 6 3 NW 0,0
23.05.2018 04:00:00 17,7 15,9 0 0 5 3 SSE 0,0
23.05.2018 03:00:00 17,7 15,9 0 0 5 3 N 0,0
23.05.2018 02:00:00 18,2 16,2 3 2 5 3 WSW -
23.05.2018 01:00:00 18,7 16,3 3 1 8 4 SW 0,0
23.05.2018 00:00:00 19,0 16,4 3 2 10 5 S 0,0
22.05.2018 23:00:00 19,2 16,4 4 2 9 5 SSW 0,0
22.05.2018 22:00:00 19,3 16,2 4 2 15 8 SSW 0,0
22.05.2018 21:00:00 19,8 16,1 6 4 21 11 S 0,0
22.05.2018 20:00:00 20,2 16,0 12 6 28 15 S -
22.05.2018 19:00:00 20,1 15,9 17 9 33 18 S 0,0
22.05.2018 18:00:00 20,3 16,1 19 10 32 17 SSW 0,0
22.05.2018 17:00:00 20,5 16,3 17 9 31 17 SSW 0,0
22.05.2018 16:00:00 20,6 16,2 16 9 29 16 S 0,0
22.05.2018 15:00:00 20,7 15,5 13 7 26 14 S 0,0
22.05.2018 14:00:00 21,8 13,2 13 7 22 12 S -
22.05.2018 13:00:00 21,6 15,4 7 4 18 10 S 0,0
22.05.2018 12:00:00 20,9 16,1 9 5 18 10 SSE 0,0
22.05.2018 11:00:00 21,1 15,6 6 3 16 8 S 0,0
22.05.2018 10:00:00 20,7 15,0 5 3 9 5 SE 0,0
22.05.2018 09:00:00 19,4 15,1 0 0 5 3 SSW 0,0
22.05.2018 08:00:00 16,9 13,6 0 0 5 3 N -
22.05.2018 07:00:00 16,4 13,1 0 0 5 3 S 0,0
22.05.2018 06:00:00 16,8 14,3 3 2 8 4 N 0,0
22.05.2018 05:00:00 17,7 15,9 3 2 9 5 WNW 0,0
22.05.2018 04:00:00 18,3 16,5 3 1 14 7 SSW 0,0
22.05.2018 03:00:00 18,6 16,6 7 4 16 9 S 0,0
22.05.2018 02:00:00 18,4 16,0 4 2 18 10 SSW -
22.05.2018 01:00:00 18,7 16,1 8 5 18 10 S 0,0
22.05.2018 00:00:00 18,6 15,3 6 3 18 10 SSW 0,0
21.05.2018 23:00:00 18,8 15,3 8 4 23 12 SW 0,0
21.05.2018 22:00:00 18,9 15,2 8 4 26 14 SSW 0,0
21.05.2018 21:00:00 19,0 14,9 12 6 21 11 SSW 0,0
21.05.2018 20:00:00 19,4 14,7 11 6 23 13 SSW -
21.05.2018 19:00:00 20,4 14,1 13 7 29 15 S 0,0
21.05.2018 18:00:00 20,3 14,4 16 8 31 17 S 0,0
21.05.2018 17:00:00 19,9 14,0 15 8 29 16 S 0,0
21.05.2018 16:00:00 19,8 14,2 17 9 29 16 S 0,0
21.05.2018 15:00:00 19,6 14,0 14 8 28 15 S 0,0
21.05.2018 14:00:00 19,9 14,5 11 6 22 12 S -
21.05.2018 13:00:00 19,8 14,6 11 6 21 12 S 0,0
21.05.2018 12:00:00 19,4 14,4 9 5 19 10 S 0,0
21.05.2018 11:00:00 20,1 14,9 5 3 17 9 S 0,0
21.05.2018 10:00:00 19,1 14,4 6 3 11 6 SSE 0,0
21.05.2018 09:00:00 18,3 13,4 2 1 5 3 NE 0,0
21.05.2018 08:00:00 15,5 12,1 0 0 4 2 S -
21.05.2018 07:00:00 14,9 11,3 1 1 4 2 NW 0,0
21.05.2018 06:00:00 15,1 11,3 1 0 4 2 WNW 0,0
21.05.2018 05:00:00 15,4 11,6 0 0 3 2 WNW 0,0
21.05.2018 04:00:00 15,8 11,8 1 0 4 2 W 0,0
21.05.2018 03:00:00 16,3 12,3 1 1 4 2 W 0,0
21.05.2018 02:00:00 16,5 12,5 3 2 5 3 WNW -
21.05.2018 01:00:00 17,3 13,4 1 1 4 2 W 0,0
21.05.2018 00:00:00 17,9 14,0 1 1 6 4 SW 0,0
20.05.2018 23:00:00 18,3 14,0 1 1 6 4 SW 0,0
20.05.2018 22:00:00 18,4 13,7 3 2 13 7 S 0,0
20.05.2018 21:00:00 18,5 13,4 5 3 16 9 S 0,0
20.05.2018 20:00:00 18,9 13,5 6 3 17 9 S -
20.05.2018 19:00:00 19,7 13,9 9 5 18 10 S 0,0
20.05.2018 18:00:00 19,9 13,6 9 5 23 12 S 0,0
20.05.2018 17:00:00 20,2 12,4 11 6 24 13 SSW 0,0
20.05.2018 16:00:00 21,4 13,6 8 4 20 11 S 0,0
20.05.2018 15:00:00 21,0 12,7 10 5 21 11 S 0,0
20.05.2018 14:00:00 20,6 12,8 7 4 18 10 S -
20.05.2018 13:00:00 20,9 14,8 6 3 16 9 SSE 0,0
20.05.2018 12:00:00 20,8 13,7 7 4 17 9 E 0,0
20.05.2018 11:00:00 19,1 13,3 5 3 12 6 ENE 0,0
20.05.2018 10:00:00 18,1 13,8 3 2 8 5 NNW 0,0
20.05.2018 09:00:00 17,3 14,0 2 1 5 3 NNE 0,0
20.05.2018 08:00:00 15,6 13,1 1 1 6 3 NE -
20.05.2018 07:00:00 15,4 12,9 2 1 6 3 WNW 0,0
20.05.2018 06:00:00 15,6 13,1 3 2 6 4 NE 0,0
20.05.2018 05:00:00 16,0 13,3 4 2 10 5 NNW 0,0
20.05.2018 04:00:00 16,2 13,1 4 2 9 5 NW 0,0
20.05.2018 03:00:00 16,5 13,4 3 2 8 5 NNW 0,0
20.05.2018 02:00:00 17,2 14,3 3 2 6 3 WNW -
20.05.2018 01:00:00 17,4 14,5 3 1 5 3 W 0,0
20.05.2018 00:00:00 17,7 14,6 1 1 8 4 WSW 0,0
19.05.2018 23:00:00 18,0 14,7 6 3 12 6 S 0,0
19.05.2018 22:00:00 18,1 14,4 4 2 10 6 SSW 0,0
19.05.2018 21:00:00 18,9 14,0 6 3 14 7 SSW 0,0
19.05.2018 20:00:00 19,8 13,5 6 3 16 8 S -
19.05.2018 19:00:00 21,1 14,3 5 3 21 11 S 0,0
19.05.2018 18:00:00 21,1 13,3 11 6 20 11 ESE 0,0
19.05.2018 17:00:00 21,5 12,9 10 6 20 11 SE 0,0
19.05.2018 16:00:00 22,3 11,4 7 4 20 11 ENE 0,0
19.05.2018 15:00:00 21,5 11,5 10 5 23 12 NE 0,0
19.05.2018 14:00:00 21,6 11,9 10 5 23 13 ENE -
19.05.2018 13:00:00 21,5 12,4 8 4 23 13 NE 0,0
19.05.2018 12:00:00 20,7 13,2 7 4 22 12 NE 0,0
19.05.2018 11:00:00 20,2 12,9 9 5 19 10 ENE 0,0
19.05.2018 10:00:00 18,4 14,3 3 1 11 6 NE 0,0
19.05.2018 09:00:00 17,5 14,0 1 1 6 4 NNW 0,0
19.05.2018 08:00:00 15,9 13,0 2 1 9 5 NNW -
19.05.2018 07:00:00 15,9 12,6 2 1 8 5 NE 0,0
19.05.2018 06:00:00 16,4 12,9 4 2 13 7 NW 0,0
19.05.2018 05:00:00 17,0 13,1 5 3 13 7 NNW 0,0
19.05.2018 04:00:00 16,8 12,8 3 1 8 4 NW 0,0
19.05.2018 03:00:00 16,9 12,8 3 2 10 6 NW 0,0
19.05.2018 02:00:00 17,9 13,4 4 2 10 5 NNW -
19.05.2018 01:00:00 18,3 13,6 4 2 8 5 N 0,0
19.05.2018 00:00:00 18,8 13,4 3 2 10 5 NE 0,0
18.05.2018 23:00:00 19,1 13,3 4 2 10 5 NNE 0,0
18.05.2018 22:00:00 19,4 12,9 5 3 11 6 NE 0,0
18.05.2018 21:00:00 19,8 13,0 3 2 11 6 W 0,0
18.05.2018 20:00:00 20,9 13,4 4 2 18 10 W -
18.05.2018 19:00:00 20,7 12,9 10 6 18 10 WSW 0,0
18.05.2018 18:00:00 23,4 12,1 3 2 19 11 ENE 0,0
18.05.2018 17:00:00 23,5 11,5 9 5 22 12 NE 0,0
18.05.2018 16:00:00 23,1 10,9 9 5 23 12 NE 0,0
18.05.2018 15:00:00 22,7 10,8 9 5 25 14 NE 0,0
18.05.2018 14:00:00 22,6 11,7 10 5 22 12 ENE -
18.05.2018 13:00:00 22,3 12,8 9 5 20 11 ENE 0,0
18.05.2018 12:00:00 21,8 12,9 5 3 16 9 NE 0,0
18.05.2018 11:00:00 21,1 13,3 3 1 15 8 NE 0,0
18.05.2018 10:00:00 19,8 13,0 6 3 14 8 NNE 0,0
18.05.2018 09:00:00 17,6 11,2 1 1 5 3 N 0,0
18.05.2018 08:00:00 15,6 10,6 0 0 6 3 N -
18.05.2018 07:00:00 14,9 10,3 4 2 7 4 NNE 0,0
18.05.2018 06:00:00 15,1 10,5 3 2 6 3 NE 0,0
18.05.2018 05:00:00 15,4 10,6 2 1 8 4 NE 0,0
18.05.2018 04:00:00 15,5 10,7 2 1 11 6 NW 0,0
18.05.2018 03:00:00 15,8 11,2 4 2 12 7 NNW 0,0
18.05.2018 02:00:00 16,5 12,3 5 3 12 7 N -
18.05.2018 01:00:00 17,2 12,5 6 3 13 7 NNE 0,0
18.05.2018 00:00:00 17,7 13,0 5 3 11 6 N 0,0
17.05.2018 23:00:00 18,0 13,1 3 2 8 5 NE 0,0
17.05.2018 22:00:00 18,6 13,0 4 2 12 6 NNE 0,0

tt = Température de l'air
td = dewpoint
ff = Vitesse du vent
fx = gusts
dd = Direction du vent
rr = Quantités de précipitations

stations d'obs. à proximité